createdAt,value
2023-03-24T00:00:38.447Z,78.16
2023-03-24T00:01:36.968Z,78.23
2023-03-24T00:02:37.963Z,78.33
2023-03-24T00:03:36.767Z,78.42
2023-03-24T00:04:37.250Z,78.34
2023-03-24T00:05:37.073Z,78.30
2023-03-24T00:06:36.753Z,78.28
2023-03-24T00:07:39.908Z,78.15
2023-03-24T00:09:09.401Z,78.06
2023-03-24T00:09:42.423Z,78.02
2023-03-24T00:10:39.097Z,78.03
2023-03-24T00:11:37.663Z,78.08
2023-03-24T00:12:38.076Z,78.12
2023-03-24T00:13:38.391Z,78.17
2023-03-24T00:14:39.164Z,78.23
2023-03-24T00:15:38.649Z,78.28
2023-03-24T00:16:39.672Z,78.23
2023-03-24T00:17:39.099Z,78.27
2023-03-24T00:18:40.695Z,78.29
2023-03-24T00:19:39.852Z,78.24
2023-03-24T00:20:38.861Z,78.25
2023-03-24T00:21:40.408Z,78.14
2023-03-24T00:22:39.285Z,78.23
2023-03-24T00:23:38.540Z,78.30
2023-03-24T00:24:39.601Z,78.34
2023-03-24T00:25:38.858Z,78.28
2023-03-24T00:26:40.611Z,78.31
2023-03-24T00:27:39.666Z,78.25
2023-03-24T00:28:39.859Z,78.22
2023-03-24T00:29:40.360Z,78.29
2023-03-24T00:30:39.370Z,78.38
2023-03-24T00:31:40.121Z,78.40
2023-03-24T00:32:39.784Z,78.35
2023-03-24T00:33:40.059Z,78.37
2023-03-24T00:34:39.675Z,78.38
2023-03-24T00:35:39.839Z,78.35
2023-03-24T00:36:40.774Z,78.37
2023-03-24T00:37:39.724Z,78.40
2023-03-24T00:38:39.819Z,78.35
2023-03-24T00:39:39.589Z,78.39
2023-03-24T00:40:39.459Z,78.43
2023-03-24T00:41:39.243Z,78.48
2023-03-24T00:42:39.235Z,78.50
2023-03-24T00:43:39.706Z,78.53
2023-03-24T00:44:39.815Z,78.62
2023-03-24T00:45:41.304Z,78.65
2023-03-24T00:46:40.032Z,78.69
2023-03-24T00:47:39.027Z,78.63
2023-03-24T00:48:38.713Z,78.71
2023-03-24T00:49:39.541Z,78.77
2023-03-24T00:50:40.522Z,78.83
2023-03-24T00:51:40.821Z,78.88
2023-03-24T00:52:40.936Z,78.90
2023-03-24T00:53:40.084Z,78.86
2023-03-24T00:54:39.124Z,79.07
2023-03-24T00:55:38.918Z,79.25
2023-03-24T00:56:39.942Z,79.19
2023-03-24T00:57:38.779Z,79.27
2023-03-24T00:58:39.697Z,79.59
2023-03-24T00:59:39.735Z,79.69
2023-03-24T01:01:45.454Z,79.76
2023-03-24T01:02:39.577Z,79.82
2023-03-24T01:03:39.855Z,79.94
2023-03-24T01:04:39.717Z,80.05
2023-03-24T01:05:40.079Z,80.09
2023-03-24T01:06:38.974Z,80.08
2023-03-24T01:07:39.204Z,80.23
2023-03-24T01:08:38.890Z,80.29
2023-03-24T01:09:40.451Z,80.29
2023-03-24T01:10:39.640Z,80.40
2023-03-24T01:11:39.911Z,80.44
2023-03-24T01:12:38.627Z,80.40
2023-03-24T01:13:39.042Z,80.47
2023-03-24T01:14:39.585Z,80.45
2023-03-24T01:15:38.854Z,80.41
2023-03-24T01:16:38.928Z,80.45
2023-03-24T01:17:39.108Z,80.42
2023-03-24T01:18:38.230Z,80.39
2023-03-24T01:19:39.403Z,80.45
2023-03-24T01:20:38.502Z,80.58
2023-03-24T01:21:39.038Z,80.62
2023-03-24T01:22:38.018Z,80.66
2023-03-24T01:23:37.860Z,80.72
2023-03-24T01:24:39.203Z,80.71
2023-03-24T01:25:38.852Z,80.61
2023-03-24T01:26:38.910Z,80.64
2023-03-24T01:27:39.472Z,80.59
2023-03-24T01:28:38.899Z,80.74
2023-03-24T01:29:39.626Z,80.68
2023-03-24T01:30:39.232Z,80.71
2023-03-24T01:31:38.957Z,80.81
2023-03-24T01:32:38.618Z,80.80
2023-03-24T01:33:39.653Z,80.82
2023-03-24T01:34:38.984Z,80.76
2023-03-24T01:35:40.529Z,80.77
2023-03-24T01:36:39.247Z,80.78
2023-03-24T01:37:38.643Z,80.72
2023-03-24T01:38:39.134Z,80.56
2023-03-24T01:39:38.556Z,80.73
2023-03-24T01:40:39.395Z,80.72
2023-03-24T01:41:41.193Z,80.75
2023-03-24T01:42:39.038Z,80.79
2023-03-24T01:43:38.515Z,80.71
2023-03-24T01:44:39.142Z,80.70
2023-03-24T01:45:44.363Z,80.77
2023-03-24T01:46:39.087Z,80.86
2023-03-24T01:47:49.748Z,80.86
2023-03-24T01:48:39.208Z,80.77
2023-03-24T01:49:38.607Z,80.73
2023-03-24T01:50:38.875Z,80.79
2023-03-24T01:51:47.765Z,80.74
2023-03-24T01:52:38.757Z,80.83
2023-03-24T01:53:39.013Z,80.84
2023-03-24T01:54:38.884Z,80.84
2023-03-24T01:55:39.190Z,81.16
2023-03-24T01:56:39.561Z,81.16
2023-03-24T01:57:38.289Z,80.71
2023-03-24T01:58:38.697Z,80.58
2023-03-24T01:59:39.182Z,80.58
2023-03-24T02:00:40.708Z,80.68
2023-03-24T02:01:40.546Z,80.66
2023-03-24T02:02:39.543Z,80.64
2023-03-24T02:03:40.174Z,80.58
2023-03-24T02:04:40.147Z,80.51
2023-03-24T02:05:38.736Z,80.56
2023-03-24T02:06:39.717Z,80.60
2023-03-24T02:07:39.940Z,80.67
2023-03-24T02:08:39.644Z,80.90
2023-03-24T02:09:39.683Z,80.66
2023-03-24T02:10:40.534Z,80.56
2023-03-24T02:11:39.933Z,80.57
2023-03-24T02:12:40.033Z,80.57
2023-03-24T02:13:44.432Z,80.69
2023-03-24T02:14:39.907Z,80.65
2023-03-24T02:15:39.863Z,80.50
2023-03-24T02:16:39.886Z,80.41
2023-03-24T02:17:40.030Z,80.41
2023-03-24T02:18:39.132Z,80.43
2023-03-24T02:19:39.737Z,80.41
2023-03-24T02:20:39.017Z,80.49
2023-03-24T02:21:38.933Z,80.47
2023-03-24T02:22:39.998Z,80.40
2023-03-24T02:23:38.596Z,80.47
2023-03-24T02:24:40.397Z,80.55
2023-03-24T02:25:39.938Z,80.46
2023-03-24T02:26:39.944Z,80.49
2023-03-24T02:27:39.557Z,80.54
2023-03-24T02:28:39.407Z,80.41
2023-03-24T02:29:39.546Z,80.27
2023-03-24T02:30:40.434Z,80.20
2023-03-24T02:31:39.902Z,80.23
2023-03-24T02:32:39.087Z,80.20
2023-03-24T02:33:39.005Z,80.15
2023-03-24T02:34:39.452Z,80.14
2023-03-24T02:35:39.004Z,80.21
2023-03-24T02:36:38.133Z,80.20
2023-03-24T02:37:38.613Z,80.38
2023-03-24T02:38:38.966Z,80.40
2023-03-24T02:39:39.893Z,80.52
2023-03-24T02:40:39.129Z,80.55
2023-03-24T02:41:38.901Z,80.52
2023-03-24T02:42:39.539Z,80.60
2023-03-24T02:44:10.795Z,80.64
2023-03-24T02:46:10.431Z,80.81
2023-03-24T02:46:43.792Z,80.76
2023-03-24T02:47:39.701Z,80.72
2023-03-24T02:48:38.669Z,80.69
2023-03-24T02:49:39.505Z,80.77
2023-03-24T02:50:40.466Z,80.76
2023-03-24T02:51:40.158Z,80.73
2023-03-24T02:52:38.502Z,80.68
2023-03-24T02:53:38.578Z,80.76
2023-03-24T02:54:38.516Z,80.80
2023-03-24T02:55:38.946Z,80.78
2023-03-24T02:56:38.693Z,80.92
2023-03-24T02:57:37.641Z,80.94
2023-03-24T02:58:37.348Z,80.98
2023-03-24T02:59:36.985Z,81.05
2023-03-24T03:00:37.873Z,81.17
2023-03-24T03:02:07.625Z,81.13
2023-03-24T03:02:39.966Z,81.15
2023-03-24T03:03:36.587Z,81.22
2023-03-24T03:04:37.099Z,81.19
2023-03-24T03:05:37.033Z,81.05
2023-03-24T03:06:35.991Z,81.08
2023-03-24T03:07:36.492Z,81.07
2023-03-24T03:08:36.627Z,81.05
2023-03-24T03:09:37.393Z,81.03
2023-03-24T03:10:37.308Z,81.01
2023-03-24T03:11:37.110Z,81.05
2023-03-24T03:12:36.428Z,80.95
2023-03-24T03:13:37.146Z,80.89
2023-03-24T03:14:37.063Z,81.00
2023-03-24T03:15:37.162Z,81.01
2023-03-24T03:16:36.805Z,81.01
2023-03-24T03:17:37.280Z,81.11
2023-03-24T03:18:36.795Z,81.02
2023-03-24T03:19:36.884Z,80.99
2023-03-24T03:20:36.962Z,81.03
2023-03-24T03:21:37.352Z,81.06
2023-03-24T03:22:36.886Z,81.02
2023-03-24T03:23:37.279Z,81
2023-03-24T03:24:36.351Z,81.13
2023-03-24T03:25:37.150Z,81.17
2023-03-24T03:26:36.483Z,81.14
2023-03-24T03:27:36.634Z,81.00
2023-03-24T03:28:36.793Z,80.87
2023-03-24T03:29:37.986Z,80.78
2023-03-24T03:30:36.777Z,80.81
2023-03-24T03:31:37.607Z,80.75
2023-03-24T03:32:37.126Z,80.78
2023-03-24T03:33:36.929Z,80.75
2023-03-24T03:34:37.327Z,80.67
2023-03-24T03:35:36.570Z,80.59
2023-03-24T03:36:37.255Z,80.65
2023-03-24T03:37:36.764Z,80.67
2023-03-24T03:38:37.098Z,80.69
2023-03-24T03:39:37.273Z,80.66
2023-03-24T03:40:36.951Z,80.58
2023-03-24T03:41:37.326Z,80.46
2023-03-24T03:42:36.710Z,80.47
2023-03-24T03:43:37.074Z,80.40
2023-03-24T03:44:37.035Z,80.36
2023-03-24T03:46:37.073Z,80.40
2023-03-24T03:47:37.096Z,80.35
2023-03-24T03:48:36.788Z,80.22
2023-03-24T03:49:37.150Z,80.14
2023-03-24T03:50:36.714Z,80.17
2023-03-24T03:51:37.217Z,80.16
2023-03-24T03:52:36.935Z,80.14
2023-03-24T03:53:37.054Z,80.07
2023-03-24T03:54:36.669Z,79.97
2023-03-24T03:55:37.024Z,79.86
2023-03-24T03:56:36.571Z,79.85
2023-03-24T03:57:36.977Z,79.78
2023-03-24T03:58:37.185Z,79.76
2023-03-24T03:59:37.351Z,79.71
2023-03-24T04:00:43.290Z,79.72
2023-03-24T04:01:38.114Z,79.72
2023-03-24T04:02:41.830Z,79.72
2023-03-24T04:03:37.019Z,79.78
2023-03-24T04:04:36.659Z,79.86
2023-03-24T04:05:37.276Z,79.78
2023-03-24T04:06:37.534Z,79.79
2023-03-24T04:07:37.197Z,79.77
2023-03-24T04:08:36.799Z,79.86
2023-03-24T04:09:37.573Z,79.88
2023-03-24T04:10:37.670Z,79.90
2023-03-24T04:11:37.589Z,79.95
2023-03-24T04:12:37.139Z,79.99
2023-03-24T04:13:36.719Z,79.98
2023-03-24T04:14:37.311Z,79.90
2023-03-24T04:15:36.660Z,79.83
2023-03-24T04:16:37.076Z,79.81
2023-03-24T04:17:37.056Z,79.73
2023-03-24T04:18:36.202Z,79.83
2023-03-24T04:19:36.921Z,79.76
2023-03-24T04:20:37.789Z,79.66
2023-03-24T04:21:37.627Z,79.52
2023-03-24T04:22:37.147Z,79.43
2023-03-24T04:23:36.807Z,79.43
2023-03-24T04:24:51.658Z,79.30
2023-03-24T04:25:37.285Z,79.26
2023-03-24T04:26:50.265Z,79.22
2023-03-24T04:27:36.593Z,79.24
2023-03-24T04:28:37.051Z,79.20
2023-03-24T04:29:37.748Z,79.21
2023-03-24T04:30:38.282Z,79.21
2023-03-24T04:31:37.624Z,79.12
2023-03-24T04:32:36.980Z,79.07
2023-03-24T04:33:37.071Z,78.98
2023-03-24T04:34:37.508Z,78.87
2023-03-24T04:35:36.871Z,78.70
2023-03-24T04:36:37.700Z,78.56
2023-03-24T04:37:37.212Z,78.33
2023-03-24T04:38:37.074Z,78.24
2023-03-24T04:39:37.264Z,78.16
2023-03-24T04:40:37.381Z,78.09
2023-03-24T04:41:37.217Z,78.08
2023-03-24T04:42:37.025Z,78.11
2023-03-24T04:43:36.854Z,78.09
2023-03-24T04:44:37.564Z,78.10
2023-03-24T04:45:37.246Z,78.05
2023-03-24T04:46:37.142Z,78.04
2023-03-24T04:47:36.554Z,78.06
2023-03-24T04:48:36.778Z,78.03
2023-03-24T04:49:37.182Z,78.02
2023-03-24T04:50:36.557Z,77.96
2023-03-24T04:51:37.034Z,77.96
2023-03-24T04:52:36.606Z,77.91
2023-03-24T04:53:37.207Z,77.80
2023-03-24T04:54:36.393Z,77.78
2023-03-24T04:55:37.409Z,77.77
2023-03-24T04:56:36.957Z,77.79
2023-03-24T04:57:36.729Z,77.77
2023-03-24T04:58:36.722Z,77.76
2023-03-24T04:59:37.279Z,77.78
2023-03-24T05:01:10.387Z,77.79
2023-03-24T05:01:41.515Z,77.84
2023-03-24T05:03:07.947Z,77.83
2023-03-24T05:03:39.566Z,77.74
2023-03-24T05:04:37.487Z,77.54
2023-03-24T05:05:37.607Z,77.53
2023-03-24T05:06:36.969Z,77.57
2023-03-24T05:07:37.249Z,77.34
2023-03-24T05:08:37.255Z,77.09
2023-03-24T05:09:36.975Z,77.20
2023-03-24T05:10:37.699Z,77.25
2023-03-24T05:11:37.795Z,77.25
2023-03-24T05:12:38.193Z,77.58
2023-03-24T05:13:37.053Z,77.56
2023-03-24T05:14:37.282Z,77.27
2023-03-24T05:15:37.922Z,77.28
2023-03-24T05:16:37.793Z,77.98
2023-03-24T05:17:37.222Z,77.98
2023-03-24T05:18:36.796Z,78.26
2023-03-24T05:19:37.193Z,78.21
2023-03-24T05:20:37.456Z,78.61
2023-03-24T05:21:37.317Z,78.55
2023-03-24T05:22:37.280Z,78.05
2023-03-24T05:23:37.292Z,77.52
2023-03-24T05:24:37.208Z,77.10
2023-03-24T05:25:37.431Z,77.00
2023-03-24T05:26:37.215Z,76.86
2023-03-24T05:27:37.393Z,76.55
2023-03-24T05:28:37.387Z,76.18
2023-03-24T05:29:37.031Z,76.14
2023-03-24T05:30:37.491Z,75.95
2023-03-24T05:31:37.672Z,75.37
2023-03-24T05:32:37.203Z,74.75
2023-03-24T05:33:37.238Z,73.69
2023-03-24T05:34:37.177Z,73.55
2023-03-24T05:35:37.308Z,73.64
2023-03-24T05:36:37.602Z,73.16
2023-03-24T05:37:37.090Z,73.31
2023-03-24T05:38:37.026Z,73.47
2023-03-24T05:39:37.496Z,73.15
2023-03-24T05:40:37.165Z,72.94
2023-03-24T05:41:37.493Z,73.14
2023-03-24T05:42:37.006Z,73.03
2023-03-24T05:43:37.187Z,72.86
2023-03-24T05:44:37.205Z,72.91
2023-03-24T05:45:37.508Z,72.82
2023-03-24T05:46:40.885Z,73.05
2023-03-24T05:47:38.410Z,73.11
2023-03-24T05:48:36.755Z,73.11
2023-03-24T05:49:37.639Z,73.15
2023-03-24T05:50:37.618Z,73.16
2023-03-24T05:51:38.055Z,73.12
2023-03-24T05:52:37.335Z,73.03
2023-03-24T05:53:37.315Z,73.03
2023-03-24T05:54:37.347Z,72.92
2023-03-24T05:55:37.761Z,72.86
2023-03-24T05:56:38.109Z,72.69
2023-03-24T05:57:37.670Z,72.63
2023-03-24T05:58:37.194Z,72.53
2023-03-24T05:59:37.517Z,72.11
2023-03-24T06:00:38.699Z,71.70
2023-03-24T06:01:37.867Z,71.71
2023-03-24T06:02:37.827Z,71.67
2023-03-24T06:03:39.006Z,71.73
2023-03-24T06:04:37.543Z,71.87
2023-03-24T06:05:37.024Z,71.94
2023-03-24T06:06:37.263Z,72.00
2023-03-24T06:07:37.497Z,71.98
2023-03-24T06:08:37.902Z,71.83
2023-03-24T06:09:40.870Z,71.62
2023-03-24T06:10:37.608Z,71.59
2023-03-24T06:11:39.106Z,71.67
2023-03-24T06:12:37.416Z,71.76
2023-03-24T06:13:37.796Z,71.57
2023-03-24T06:14:38.468Z,71.55
2023-03-24T06:15:37.600Z,71.52
2023-03-24T06:16:38.467Z,71.50
2023-03-24T06:17:37.485Z,71.62
2023-03-24T06:18:37.867Z,71.54
2023-03-24T06:19:37.693Z,71.41
2023-03-24T06:20:38.177Z,71.40
2023-03-24T06:21:37.619Z,71.39
2023-03-24T06:22:37.200Z,71.44
2023-03-24T06:23:42.176Z,71.21
2023-03-24T06:24:37.546Z,70.89
2023-03-24T06:25:38.112Z,70.94
2023-03-24T06:26:37.036Z,70.74
2023-03-24T06:27:37.499Z,70.98
2023-03-24T06:28:37.144Z,71.28
2023-03-24T06:29:42.280Z,71.36
2023-03-24T06:30:38.369Z,71.29
2023-03-24T06:31:37.491Z,71.35
2023-03-24T06:32:37.574Z,71.5
2023-03-24T06:33:38.020Z,71.49
2023-03-24T06:34:37.642Z,71.43
2023-03-24T06:35:38.234Z,71.54
2023-03-24T06:36:37.508Z,71.69
2023-03-24T06:37:37.463Z,71.83
2023-03-24T06:38:37.004Z,72
2023-03-24T06:39:37.729Z,72.15
2023-03-24T06:40:37.722Z,72.18
2023-03-24T06:41:37.974Z,72.27
2023-03-24T06:42:38.117Z,72.11
2023-03-24T06:43:37.868Z,72.10
2023-03-24T06:44:37.788Z,71.91
2023-03-24T06:45:37.879Z,71.87
2023-03-24T06:46:37.295Z,71.79
2023-03-24T06:47:37.722Z,71.78
2023-03-24T06:48:38.262Z,71.76
2023-03-24T06:49:38.663Z,71.84
2023-03-24T06:50:41.353Z,71.88
2023-03-24T06:51:39.908Z,72.01
2023-03-24T06:52:38.121Z,72.22
2023-03-24T06:53:37.698Z,72.41
2023-03-24T06:54:41.650Z,72.47
2023-03-24T06:55:38.414Z,72.76
2023-03-24T06:56:37.937Z,72.95
2023-03-24T06:57:37.851Z,72.84
2023-03-24T06:58:37.408Z,72.98
2023-03-24T06:59:37.730Z,73.12
2023-03-24T07:00:39.994Z,73.20
2023-03-24T07:01:38.706Z,73.33
2023-03-24T07:02:38.353Z,73.48
2023-03-24T07:03:38.435Z,73.53
2023-03-24T07:04:38.483Z,73.49
2023-03-24T07:05:37.933Z,73.58
2023-03-24T07:06:50.949Z,73.76
2023-03-24T07:08:53.788Z,74.05
2023-03-24T07:09:43.077Z,74.03
2023-03-24T07:10:37.941Z,74.05
2023-03-24T07:11:43.464Z,74.13
2023-03-24T07:12:38.736Z,74.15
2023-03-24T07:13:38.075Z,74.19
2023-03-24T07:14:37.522Z,74.24
2023-03-24T07:15:38.364Z,74.32
2023-03-24T07:16:37.677Z,74.44
2023-03-24T07:17:39.828Z,74.65
2023-03-24T07:18:38.653Z,74.65
2023-03-24T07:19:39.225Z,74.69
2023-03-24T07:20:40.054Z,74.57
2023-03-24T07:21:38.045Z,74.41
2023-03-24T07:22:38.328Z,74.25
2023-03-24T07:23:37.615Z,73.75
2023-03-24T07:24:37.733Z,73.56
2023-03-24T07:25:38.275Z,73.59
2023-03-24T07:26:37.909Z,73.70
2023-03-24T07:27:41.682Z,73.57
2023-03-24T07:28:38.101Z,73.19
2023-03-24T07:29:38.010Z,73.22
2023-03-24T07:30:54.073Z,73.36
2023-03-24T07:31:38.869Z,73.49
2023-03-24T07:32:38.520Z,73.55
2023-03-24T07:33:39.242Z,73.59
2023-03-24T07:34:38.302Z,73.64
2023-03-24T07:35:39.058Z,73.61
2023-03-24T07:36:38.058Z,73.55
2023-03-24T07:37:37.673Z,73.60
2023-03-24T07:38:39.094Z,73.71
2023-03-24T07:39:37.966Z,73.64
2023-03-24T07:40:38.825Z,73.61
2023-03-24T07:41:38.337Z,73.53
2023-03-24T07:42:37.941Z,73.47
2023-03-24T07:43:38.589Z,73.37
2023-03-24T07:44:38.746Z,73.40
2023-03-24T07:45:38.995Z,73.51
2023-03-24T07:46:37.577Z,73.38
2023-03-24T07:47:37.930Z,73.34
2023-03-24T07:48:39.469Z,73.28
2023-03-24T07:49:38.761Z,72.94
2023-03-24T07:50:39.805Z,72.89
2023-03-24T07:51:40.599Z,72.89
2023-03-24T07:52:38.626Z,72.84
2023-03-24T07:53:38.785Z,72.75
2023-03-24T07:54:39.287Z,72.83
2023-03-24T07:56:38.968Z,72.65
2023-03-24T07:57:38.338Z,72.52
2023-03-24T07:58:38.012Z,72.41
2023-03-24T07:59:39.486Z,72.50
2023-03-24T08:00:40.597Z,72.55
2023-03-24T08:01:38.102Z,72.55
2023-03-24T08:02:38.707Z,72.52
2023-03-24T08:03:39.052Z,72.34
2023-03-24T08:04:41.294Z,72.24
2023-03-24T08:05:38.740Z,72.20
2023-03-24T08:06:38.831Z,72.20
2023-03-24T08:07:37.775Z,72.21
2023-03-24T08:08:37.849Z,72.36
2023-03-24T08:09:38.117Z,72.47
2023-03-24T08:10:37.150Z,72.58
2023-03-24T08:11:37.805Z,72.63
2023-03-24T08:12:41.073Z,72.59
2023-03-24T08:13:37.638Z,72.54
2023-03-24T08:14:40.845Z,72.51
2023-03-24T08:15:38.786Z,72.60
2023-03-24T08:16:38.759Z,72.59
2023-03-24T08:17:37.887Z,72.58
2023-03-24T08:18:37.766Z,72.53
2023-03-24T08:19:48.305Z,72.50
2023-03-24T08:20:38.268Z,72.31
2023-03-24T08:21:37.716Z,72.12
2023-03-24T08:22:37.468Z,72.08
2023-03-24T08:23:37.376Z,72.10
2023-03-24T08:24:37.751Z,72.17
2023-03-24T08:25:38.409Z,72.22
2023-03-24T08:26:37.856Z,72.25
2023-03-24T08:27:39.310Z,72.17
2023-03-24T08:28:37.708Z,71.80
2023-03-24T08:29:38.090Z,71.26
2023-03-24T08:30:41.007Z,71.36
2023-03-24T08:31:41.203Z,71.45
2023-03-24T08:32:41.262Z,71.55
2023-03-24T08:33:40.076Z,71.65
2023-03-24T08:34:40.913Z,71.64
2023-03-24T08:35:42.534Z,71.62
2023-03-24T08:36:42.171Z,71.40
2023-03-24T08:37:40.940Z,71.33
2023-03-24T08:38:42.683Z,71.22
2023-03-24T08:39:41.876Z,71.22
2023-03-24T08:40:40.856Z,71.33
2023-03-24T08:41:41.748Z,71.30
2023-03-24T08:42:41.754Z,70.98
2023-03-24T08:44:16.819Z,70.75
2023-03-24T08:49:34.199Z,70.26
2023-03-24T08:49:43.796Z,70.26
2023-03-24T08:49:46.609Z,70.26
2023-03-24T08:50:54.197Z,70.05
2023-03-24T08:50:56.728Z,70.05
2023-03-24T08:51:40.562Z,69.88
2023-03-24T08:52:39.943Z,69.71
2023-03-24T08:53:40.168Z,69.45
2023-03-24T08:54:45.661Z,69.06
2023-03-24T08:55:40.857Z,68.86
2023-03-24T08:56:39.937Z,68.94
2023-03-24T08:57:39.252Z,68.91
2023-03-24T08:58:40.198Z,68.99
2023-03-24T08:59:39.468Z,68.97
2023-03-24T09:00:46.392Z,69.19
2023-03-24T09:01:39.655Z,69.80
2023-03-24T09:02:40.377Z,70.06
2023-03-24T09:03:42.383Z,69.98
2023-03-24T09:04:42.867Z,70.06
2023-03-24T09:05:56.565Z,69.95
2023-03-24T09:06:39.888Z,69.72
2023-03-24T09:07:40.272Z,69.73
2023-03-24T09:08:39.752Z,68.23
2023-03-24T09:09:40.355Z,66.94
2023-03-24T09:10:47.590Z,67.18
2023-03-24T09:11:39.202Z,67.62
2023-03-24T09:12:39.724Z,67.56
2023-03-24T09:13:40.071Z,67.72
2023-03-24T09:14:54.880Z,67.69
2023-03-24T09:15:46.599Z,67.76
2023-03-24T09:16:41.271Z,67.64
2023-03-24T09:17:40.457Z,67.66
2023-03-24T09:18:39.733Z,67.80
2023-03-24T09:19:40.230Z,67.36
2023-03-24T09:20:39.874Z,67.34
2023-03-24T09:21:43.045Z,67.09
2023-03-24T09:22:44.022Z,66.16
2023-03-24T09:23:40.728Z,65.69
2023-03-24T09:24:40.616Z,64.77
2023-03-24T09:25:40.273Z,64.30
2023-03-24T09:26:39.889Z,64.16
2023-03-24T09:27:40.746Z,64.46
2023-03-24T09:28:41.443Z,64.75
2023-03-24T09:29:40.116Z,64.61
2023-03-24T09:30:39.998Z,64.29
2023-03-24T09:31:39.082Z,64.35
2023-03-24T09:32:44.830Z,64.49
2023-03-24T09:33:41.687Z,64.47
2023-03-24T09:34:41.002Z,64.38
2023-03-24T09:35:39.920Z,64.03
2023-03-24T09:37:00.119Z,64.08
2023-03-24T09:37:38.436Z,64.05
2023-03-24T09:38:40.258Z,63.98
2023-03-24T09:39:39.843Z,63.77
2023-03-24T09:40:41.423Z,63.41
2023-03-24T09:41:40.077Z,63.71
2023-03-24T09:42:40.470Z,63.77
2023-03-24T09:43:39.682Z,63.13
2023-03-24T09:44:40.767Z,62.73
2023-03-24T09:45:41.066Z,62.75
2023-03-24T09:46:39.964Z,62.99
2023-03-24T09:47:40.427Z,62.84
2023-03-24T09:48:41.197Z,62.13
2023-03-24T09:49:40.880Z,61.49
2023-03-24T09:50:41.372Z,61.63
2023-03-24T09:51:40.250Z,61.69
2023-03-24T09:52:40.091Z,61.56
2023-03-24T09:53:39.925Z,61.31
2023-03-24T09:54:40.397Z,61.50
2023-03-24T09:55:40.361Z,61.05
2023-03-24T09:56:54.149Z,60.59
2023-03-24T09:57:39.914Z,60.77
2023-03-24T09:58:41.005Z,60.96
2023-03-24T09:59:39.441Z,61.01
2023-03-24T10:01:13.845Z,61.30
2023-03-24T10:01:45.854Z,61.00
2023-03-24T10:02:42.027Z,60.96
2023-03-24T10:03:39.457Z,60.97
2023-03-24T10:04:40.986Z,60.81
2023-03-24T10:05:40.602Z,60.34
2023-03-24T10:06:40.305Z,60.02
2023-03-24T10:07:40.820Z,59.68
2023-03-24T10:09:00.120Z,59.47
2023-03-24T10:09:40.036Z,59.65
2023-03-24T10:10:40.149Z,60.05
2023-03-24T10:11:40.768Z,60.15
2023-03-24T10:12:41.000Z,59.95
2023-03-24T10:13:40.264Z,59.98
2023-03-24T10:14:39.747Z,60.18
2023-03-24T10:15:53.783Z,60.09
2023-03-24T10:16:40.148Z,60
2023-03-24T10:17:40.159Z,59.71
2023-03-24T10:18:40.247Z,59.41
2023-03-24T10:19:40.195Z,58.74
2023-03-24T10:20:40.609Z,58.49
2023-03-24T10:21:40.653Z,58.04
2023-03-24T10:22:40.563Z,57.75
2023-03-24T10:23:40.021Z,57.73
2023-03-24T10:24:40.393Z,57.95
2023-03-24T10:25:40.472Z,57.59
2023-03-24T10:26:41.489Z,57.70
2023-03-24T10:27:41.505Z,57.79
2023-03-24T10:28:40.508Z,58.03
2023-03-24T10:29:41.304Z,58.02
2023-03-24T10:30:43.189Z,58.11
2023-03-24T10:31:40.596Z,57.63
2023-03-24T10:32:41.693Z,57.58
2023-03-24T10:33:40.947Z,57.68
2023-03-24T10:34:40.947Z,57.83
2023-03-24T10:35:41.006Z,57.89
2023-03-24T10:36:41.041Z,57.81
2023-03-24T10:37:40.923Z,57.61
2023-03-24T10:38:41.117Z,56.91
2023-03-24T10:39:59.049Z,56.60
2023-03-24T10:40:39.865Z,56.58
2023-03-24T10:41:40.491Z,56.79
2023-03-24T10:42:41.244Z,56.99
2023-03-24T10:43:40.116Z,56.77
2023-03-24T10:44:40.398Z,56.77
2023-03-24T10:45:40.020Z,56.41
2023-03-24T10:46:39.584Z,56.45
2023-03-24T10:47:40.983Z,56.56
2023-03-24T10:48:39.967Z,56.90
2023-03-24T10:49:40.717Z,57.27
2023-03-24T10:50:40.113Z,57.25
2023-03-24T10:51:39.951Z,57.17
2023-03-24T10:52:40.703Z,56.97
2023-03-24T10:53:40.129Z,57.04
2023-03-24T10:54:39.940Z,57.75
2023-03-24T10:55:41.084Z,58.81
2023-03-24T10:56:40.130Z,58.70
2023-03-24T10:57:39.609Z,58.35
2023-03-24T10:58:41.510Z,58.65
2023-03-24T10:59:40.159Z,59.70
2023-03-24T11:00:42.770Z,59.27
2023-03-24T11:01:41.541Z,58.72
2023-03-24T11:02:40.288Z,58.79
2023-03-24T11:03:41.099Z,59.36
2023-03-24T11:04:39.634Z,59.04
2023-03-24T11:05:40.566Z,58.22
2023-03-24T11:06:39.980Z,58.20
2023-03-24T11:07:41.114Z,58.00
2023-03-24T11:08:40.145Z,57.45
2023-03-24T11:09:40.538Z,57.56
2023-03-24T11:10:41.128Z,58.31
2023-03-24T11:11:39.552Z,58.29
2023-03-24T11:12:40.218Z,57.40
2023-03-24T11:13:39.697Z,57.06
2023-03-24T11:14:40.592Z,56.88
2023-03-24T11:15:40.921Z,56.62
2023-03-24T11:16:41.210Z,56.77
2023-03-24T11:17:40.425Z,56.52
2023-03-24T11:18:39.866Z,56.44
2023-03-24T11:19:45.714Z,56.47
2023-03-24T11:20:41.621Z,56.54
2023-03-24T11:21:46.166Z,56.34
2023-03-24T11:22:40.849Z,56.59
2023-03-24T11:23:45.687Z,57.15
2023-03-24T11:24:41.491Z,57.54
2023-03-24T11:25:41.918Z,57.84
2023-03-24T11:26:41.935Z,57.84
2023-03-24T11:27:40.839Z,57.90
2023-03-24T11:28:40.635Z,57.68
2023-03-24T11:29:40.133Z,57.49
2023-03-24T11:30:39.991Z,56.52
2023-03-24T11:31:40.199Z,56.21
2023-03-24T11:32:40.014Z,56.37
2023-03-24T11:33:52.127Z,56.59
2023-03-24T11:34:40.288Z,56.43
2023-03-24T11:36:39.474Z,56.27
2023-03-24T11:36:51.266Z,56.18
2023-03-24T11:37:40.126Z,56.16
2023-03-24T11:38:39.895Z,55.99
2023-03-24T11:39:42.139Z,56.04
2023-03-24T11:40:40.822Z,55.29
2023-03-24T11:41:40.760Z,55.29
2023-03-24T11:42:42.447Z,56.07
2023-03-24T11:43:41.747Z,56.44
2023-03-24T11:44:40.515Z,56.02
2023-03-24T11:45:41.008Z,56.11
2023-03-24T11:46:40.300Z,56.20
2023-03-24T11:47:41.943Z,56.39
2023-03-24T11:48:41.638Z,56.43
2023-03-24T11:49:42.238Z,56.23
2023-03-24T11:50:42.591Z,56.09
2023-03-24T11:51:55.002Z,56.16
2023-03-24T11:52:40.018Z,56.35
2023-03-24T11:53:39.838Z,56.70
2023-03-24T11:54:44.868Z,56.91
2023-03-24T11:55:45.120Z,57.02
2023-03-24T11:56:40.347Z,56.94
2023-03-24T11:57:39.532Z,56.87
2023-03-24T11:58:40.420Z,56.66
2023-03-24T11:59:41.175Z,56.74
2023-03-24T12:00:41.572Z,56.43
2023-03-24T12:01:41.037Z,55.93
2023-03-24T12:02:39.556Z,55.25
2023-03-24T12:03:40.859Z,54.52
2023-03-24T12:04:40.275Z,54.49
2023-03-24T12:05:45.492Z,54.62
2023-03-24T12:06:39.734Z,54.50
2023-03-24T12:07:40.821Z,54.54
2023-03-24T12:08:40.595Z,54.82
2023-03-24T12:09:40.958Z,55.08
2023-03-24T12:10:39.514Z,55.25
2023-03-24T12:11:48.626Z,54.82
2023-03-24T12:12:40.645Z,54.00
2023-03-24T12:13:48.898Z,53.47
2023-03-24T12:14:41.613Z,53.76
2023-03-24T12:15:45.157Z,53.94
2023-03-24T12:16:40.412Z,53.58
2023-03-24T12:17:41.044Z,53.56
2023-03-24T12:18:40.771Z,53.78
2023-03-24T12:20:13.820Z,53.56
2023-03-24T12:20:47.333Z,53.51
2023-03-24T12:21:41.043Z,53.62
2023-03-24T12:22:39.876Z,53.81
2023-03-24T12:23:40.204Z,54.09
2023-03-24T12:24:40.175Z,53.86
2023-03-24T12:25:41.079Z,53.87
2023-03-24T12:26:39.666Z,53.91
2023-03-24T12:27:40.847Z,54.23
2023-03-24T12:28:40.832Z,54.17
2023-03-24T12:29:41.261Z,54.10
2023-03-24T12:30:40.287Z,54.17
2023-03-24T12:31:40.667Z,54.31
2023-03-24T12:32:41.847Z,54.52
2023-03-24T12:33:41.632Z,54.65
2023-03-24T12:34:41.470Z,54.71
2023-03-24T12:35:40.973Z,54.86
2023-03-24T12:36:41.097Z,54.97
2023-03-24T12:38:00.014Z,54.75
2023-03-24T12:38:39.272Z,54.30
2023-03-24T12:39:40.842Z,54.30
2023-03-24T12:40:41.551Z,54.58
2023-03-24T12:41:40.718Z,53.89
2023-03-24T12:42:40.303Z,53.84
2023-03-24T12:44:03.090Z,53.77
2023-03-24T12:44:40.402Z,53.45
2023-03-24T12:45:40.543Z,53.58
2023-03-24T12:46:49.010Z,53.51
2023-03-24T12:48:03.174Z,53.45
2023-03-24T12:48:41.631Z,53.02
2023-03-24T12:49:40.754Z,52.82
2023-03-24T12:50:40.090Z,52.63
2023-03-24T12:51:40.291Z,52.27
2023-03-24T12:52:40.164Z,52.65
2023-03-24T12:54:39.951Z,53.32
2023-03-24T12:56:40.826Z,53.04
2023-03-24T12:57:41.190Z,53.15
2023-03-24T12:58:40.417Z,53.56
2023-03-24T12:59:40.961Z,53.03
2023-03-24T13:00:41.629Z,53.21
2023-03-24T13:01:41.195Z,53.61
2023-03-24T13:02:40.763Z,53.43